Heron Bay, Alabama
Current Conditions -  °F | °C
As of 6:53 AM on Friday 19 Dec 2014 (Local Time) from KBFM Reporting Station
Overcast Overcast  
Wind Chill: 54°   Ceiling: 3600
Heat Index: 54°   Visibility: 10mi
Dew Point: 42°   Wind: 9mph
Humidity: 64%   Direction: 350°N
Pressure: 30.16"   Gusts: NA
Location:  30.4032°N, 88.1801°W
Report Text: KBFM 191253Z 35008KT 10SM OVC036 12/06 A3016 RMK AO2 SLP214 T01220056
Loading
Personal Weather Stations






























Interactive Weather Map New forecast layout! Learn more

10-Day Weather Forecast

Advertisements
Track Severe Weather on mobile